This is the latest recevied weather packets stored in our database for station/object EA5GK-10. If no packets are shown the sender has not sent any weather packets the latest 10 day(s).
| Time | Temp. | Humidity | Pressure | Rain* | Wind** | Luminosity | Snow |
|---|---|---|---|---|---|---|---|
| 1787938787 | 27.22° C | 38% | 1018.4 hPa | - | - | - | - |
| 1787937887 | 27.22° C | 37% | 1018.4 hPa | - | - | - | - |
| 1787936987 | 27.22° C | 36% | 1018.3 hPa | - | - | - | - |
| 1787936087 | 27.22° C | 36% | 1018.3 hPa | - | - | - | - |
| 1787935187 | 27.22° C | 36% | 1018.3 hPa | - | - | - | - |
| 1787934287 | 27.22° C | 37% | 1018.3 hPa | - | - | - | - |
| 1787933387 | 27.22° C | 37% | 1018.2 hPa | - | - | - | - |
| 1787932486 | 27.22° C | 37% | 1018.1 hPa | - | - | - | - |
| 1787931586 | 26.67° C | 38% | 1018.5 hPa | - | - | - | - |
| 1787930686 | 26.11° C | 39% | 1019 hPa | - | - | - | - |
| 1787929786 | 25.56° C | 39% | 1019 hPa | - | - | - | - |
| 1787928886 | 25.56° C | 40% | 1019.4 hPa | - | - | - | - |
| 1787927986 | 25.56° C | 40% | 1019.4 hPa | - | - | - | - |
| 1787927086 | 25.56° C | 39% | 1019.7 hPa | - | - | - | - |
| 1787926186 | 25.56° C | 40% | 1019.9 hPa | - | - | - | - |
| 1787925285 | 25.56° C | 40% | 1019.9 hPa | - | - | - | - |
| 1787924385 | 25.56° C | 41% | 1019.6 hPa | - | - | - | - |
| 1787923485 | 25° C | 42% | 1019.3 hPa | - | - | - | - |
| 1787922585 | 23.89° C | 43% | 1019.7 hPa | - | - | - | - |
| 1787921685 | 23.89° C | 46% | 1019.4 hPa | - | - | - | - |
| 1787920785 | 23.33° C | 47% | 1018.3 hPa | - | - | - | - |
| 1787919885 | 23.89° C | 41% | 1020.8 hPa | - | - | - | - |
| 1787918985 | 23.89° C | 40% | 1019.7 hPa | - | - | - | - |
| 1787918084 | 24.44° C | 38% | 1020.8 hPa | - | - | - | - |
| 1787917184 | 25° C | 36% | 1020.5 hPa | - | - | - | - |
* Rain since midnight (hover to see other rain measurements)
** Current wind speed in m/s (hover to see current wind gust speed)